createdAt,value
2022-10-26T00:01:40.367Z,12.55
2022-10-26T00:04:09.365Z,12.74
2022-10-26T00:06:38.313Z,12.84
2022-10-26T00:09:07.143Z,13.01
2022-10-26T00:11:35.976Z,12.96
2022-10-26T00:14:06.201Z,12.78
2022-10-26T00:16:35.110Z,12.99
2022-10-26T00:19:03.873Z,13.12
2022-10-26T00:21:36.532Z,12.98
2022-10-26T00:24:06.416Z,13.09
2022-10-26T00:26:36.333Z,13.03
2022-10-26T00:29:06.925Z,12.73
2022-10-26T00:31:35.768Z,12.77
2022-10-26T00:34:04.611Z,12.93
2022-10-26T00:36:33.989Z,12.77
2022-10-26T00:39:02.690Z,12.58
2022-10-26T00:41:34.015Z,12.84
2022-10-26T00:44:03.007Z,12.92
2022-10-26T00:46:37.258Z,12.76
2022-10-26T00:49:14.629Z,12.93
2022-10-26T00:51:47.368Z,12.93
2022-10-26T00:54:19.180Z,12.82
2022-10-26T00:56:50.982Z,12.69
2022-10-26T00:59:25.022Z,13.06
2022-10-26T01:01:55.609Z,12.85
2022-10-26T01:04:24.538Z,12.71
2022-10-26T01:06:54.507Z,12.93
2022-10-26T01:09:24.299Z,12.93
2022-10-26T01:11:53.382Z,12.75
2022-10-26T01:14:24.652Z,12.90
2022-10-26T01:20:23.723Z,13.05
2022-10-26T01:22:58.127Z,12.87
2022-10-26T01:26:06.974Z,12.98
2022-10-26T01:28:58.398Z,13.06
2022-10-26T01:31:35.512Z,12.87
2022-10-26T01:34:11.084Z,12.83
2022-10-26T01:36:45.584Z,12.87
2022-10-26T01:39:23.093Z,12.90
2022-10-26T01:41:55.139Z,12.97
2022-10-26T01:44:30.442Z,12.91
2022-10-26T01:47:03.061Z,12.93
2022-10-26T01:49:36.007Z,12.90
2022-10-26T01:52:05.405Z,12.84
2022-10-26T01:57:14.828Z,12.84
2022-10-26T02:00:00.244Z,12.90
2022-10-26T02:02:51.896Z,13.07
2022-10-26T02:05:58.479Z,13.04
2022-10-26T02:08:43.550Z,12.16
2022-10-26T02:11:25.466Z,12.86
2022-10-26T02:13:59.236Z,12.87
2022-10-26T02:16:38.549Z,12.98
2022-10-26T02:19:16.286Z,12.44
2022-10-26T02:21:49.845Z,13.21
2022-10-26T02:24:19.749Z,12.94
2022-10-26T02:26:51.761Z,12.57
2022-10-26T02:29:21.944Z,13.08
2022-10-26T02:31:52.777Z,13.04
2022-10-26T02:34:27.238Z,13.38
2022-10-26T02:37:00.326Z,12.84
2022-10-26T02:39:32.860Z,13.11
2022-10-26T02:42:04.353Z,12.68
2022-10-26T02:44:38.060Z,12.65
2022-10-26T02:47:07.234Z,12.65
2022-10-26T02:49:38.467Z,12.56
2022-10-26T02:52:13.811Z,12.89
2022-10-26T02:55:20.473Z,12.78
2022-10-26T02:57:56.281Z,13.00
2022-10-26T03:00:25.168Z,12.98
2022-10-26T03:02:58.002Z,12.44
2022-10-26T03:05:33.090Z,12.84
2022-10-26T03:08:02.380Z,12.79
2022-10-26T03:10:34.191Z,12.66
2022-10-26T03:13:03.188Z,12.73
2022-10-26T03:15:33.151Z,12.83
2022-10-26T03:18:02.500Z,12.75
2022-10-26T03:20:34.310Z,12.80
2022-10-26T03:23:03.310Z,12.70
2022-10-26T03:25:33.621Z,12.94
2022-10-26T03:28:05.454Z,12.62
2022-10-26T03:30:34.840Z,12.49
2022-10-26T03:33:03.961Z,12.71
2022-10-26T03:35:34.330Z,13.01
2022-10-26T03:38:03.303Z,13.00
2022-10-26T03:40:32.047Z,12.54
2022-10-26T03:43:11.191Z,12.97
2022-10-26T03:45:56.432Z,12.78
2022-10-26T03:48:27.631Z,12.64
2022-10-26T03:51:00.449Z,13.00
2022-10-26T03:53:35.366Z,12.83
2022-10-26T03:56:05.529Z,12.89
2022-10-26T03:58:34.820Z,11.98
2022-10-26T04:01:04.786Z,13.06
2022-10-26T04:03:34.049Z,12.55
2022-10-26T04:06:05.725Z,12.94
2022-10-26T04:08:38.160Z,12.99
2022-10-26T04:11:08.214Z,12.99
2022-10-26T04:13:38.083Z,13.13
2022-10-26T04:16:08.012Z,13.05
2022-10-26T04:18:36.953Z,13.14
2022-10-26T04:21:07.278Z,12.96
2022-10-26T04:23:40.914Z,12.94
2022-10-26T04:26:12.331Z,13.01
2022-10-26T04:28:41.163Z,12.96
2022-10-26T04:31:10.160Z,12.84
2022-10-26T04:33:39.662Z,12.93
2022-10-26T04:36:10.706Z,12.71
2022-10-26T04:38:39.731Z,12.80
2022-10-26T04:41:16.798Z,12.86
2022-10-26T04:43:53.974Z,12.90
2022-10-26T04:46:26.278Z,12.60
2022-10-26T04:48:55.751Z,11.89
2022-10-26T04:51:26.285Z,12.29
2022-10-26T04:53:56.474Z,12.91
2022-10-26T04:56:25.889Z,12.64
2022-10-26T04:58:55.406Z,12.96
2022-10-26T05:01:24.634Z,12.65
2022-10-26T05:03:54.237Z,13.10
2022-10-26T05:06:24.007Z,12.97
2022-10-26T05:08:54.295Z,13.06
2022-10-26T05:11:23.251Z,12.96
2022-10-26T05:14:16.675Z,12.87
2022-10-26T05:16:45.752Z,13.14
2022-10-26T05:19:14.949Z,13.04
2022-10-26T05:24:16.764Z,13.24
2022-10-26T05:26:45.801Z,12.96
2022-10-26T05:29:15.576Z,13.35
2022-10-26T05:31:45.474Z,12.92
2022-10-26T05:34:15.454Z,13.38
2022-10-26T05:36:46.834Z,12.49
2022-10-26T05:39:18.183Z,12.29
2022-10-26T05:41:47.524Z,13.12
2022-10-26T05:44:19.158Z,13.57
2022-10-26T05:49:18.501Z,13.45
2022-10-26T05:51:47.371Z,13.54
2022-10-26T05:54:18.207Z,13.59
2022-10-26T05:56:48.232Z,13.45
2022-10-26T05:59:18.483Z,13.71
2022-10-26T06:02:10.709Z,13.77
2022-10-26T06:04:48.149Z,13.56
2022-10-26T06:07:21.362Z,13.49
2022-10-26T06:09:53.515Z,13.81
2022-10-26T06:12:27.709Z,13.17
2022-10-26T06:14:58.356Z,13.19
2022-10-26T06:17:40.993Z,14.10
2022-10-26T06:20:30.456Z,13.89
2022-10-26T06:23:13.983Z,13.99
2022-10-26T06:25:53.179Z,14.04
2022-10-26T06:28:50.797Z,14.26
2022-10-26T06:31:22.068Z,13.98
2022-10-26T06:33:52.441Z,13.84
2022-10-26T06:36:25.054Z,14.44
2022-10-26T06:39:04.767Z,13.53
2022-10-26T06:41:37.846Z,14.35
2022-10-26T06:44:07.915Z,14.51
2022-10-26T06:46:44.164Z,13.53
2022-10-26T06:49:24.788Z,14.11
2022-10-26T06:51:59.743Z,14.49
2022-10-26T06:54:40.227Z,14.55
2022-10-26T06:57:18.573Z,14.53
2022-10-26T07:00:01.876Z,14.45
2022-10-26T07:02:31.691Z,13.56
2022-10-26T07:05:00.948Z,14.51
2022-10-26T07:07:37.765Z,14.08
2022-10-26T07:10:11.873Z,13.71
2022-10-26T07:12:50.858Z,14.78
2022-10-26T07:15:25.584Z,14.71
2022-10-26T07:18:04.593Z,14.99
2022-10-26T07:20:39.385Z,15.40
2022-10-26T07:23:12.867Z,15.22
2022-10-26T07:25:45.107Z,15.34
2022-10-26T07:28:16.997Z,15.09
2022-10-26T07:30:47.821Z,15.20
2022-10-26T07:33:17.319Z,15.15
2022-10-26T07:35:53.071Z,15.03
2022-10-26T07:38:33.362Z,14.80
2022-10-26T07:41:05.496Z,14.21
2022-10-26T07:43:36.023Z,14.71
2022-10-26T07:46:08.609Z,14.43
2022-10-26T07:48:38.748Z,15.21
2022-10-26T07:51:08.971Z,14.83
2022-10-26T07:53:39.890Z,15.42
2022-10-26T07:56:12.979Z,14.11
2022-10-26T07:58:43.811Z,15.76
2022-10-26T08:01:15.394Z,15.06
2022-10-26T08:04:01.985Z,14.86
2022-10-26T08:06:34.310Z,15.33
2022-10-26T08:09:04.886Z,15.13
2022-10-26T08:11:37.701Z,16.12
2022-10-26T08:14:08.888Z,16.22
2022-10-26T08:16:41.445Z,15.93
2022-10-26T08:19:13.895Z,16.37
2022-10-26T08:21:43.344Z,16.24
2022-10-26T08:24:20.856Z,16.14
2022-10-26T08:26:49.870Z,16.56
2022-10-26T08:29:20.265Z,16.08
2022-10-26T08:31:50.445Z,16.29
2022-10-26T08:34:21.357Z,16.10
2022-10-26T08:36:52.493Z,15.31
2022-10-26T08:39:24.229Z,15.38
2022-10-26T08:42:00.444Z,16.45
2022-10-26T08:48:03.086Z,16.53
2022-10-26T08:50:40.596Z,15.18
2022-10-26T08:53:21.439Z,16.04
2022-10-26T08:56:00.832Z,15.50
2022-10-26T08:58:41.052Z,16.22
2022-10-26T09:01:12.427Z,16.43
2022-10-26T09:03:42.233Z,16.17
2022-10-26T09:06:32.863Z,16.39
2022-10-26T09:09:19.085Z,17.02
2022-10-26T09:11:59.018Z,16.57
2022-10-26T09:14:52.013Z,17.28
2022-10-26T09:17:36.117Z,16.70
2022-10-26T09:20:30.520Z,16.54
2022-10-26T09:23:03.402Z,17.32
2022-10-26T09:25:41.667Z,16.75
2022-10-26T09:28:20.721Z,16.38
2022-10-26T09:30:54.669Z,16.40
2022-10-26T09:33:38.067Z,16.22
2022-10-26T09:36:16.010Z,16.33
2022-10-26T09:39:47.211Z,16.51
2022-10-26T09:42:28.682Z,15.51
2022-10-26T09:45:05.973Z,16.85
2022-10-26T09:47:40.081Z,17.46
2022-10-26T09:50:21.534Z,17.80
2022-10-26T09:52:51.505Z,17.01
2022-10-26T09:55:23.328Z,17.12
2022-10-26T09:57:59.759Z,16.10
2022-10-26T10:01:06.844Z,16.62
2022-10-26T10:03:46.917Z,15.79
2022-10-26T10:06:24.409Z,15.27
2022-10-26T10:09:14.594Z,15.85
2022-10-26T10:11:55.207Z,17.35
2022-10-26T10:14:26.174Z,17.86
2022-10-26T10:17:22.141Z,16.86
2022-10-26T10:19:55.214Z,17.77
2022-10-26T10:22:31.362Z,17.87
2022-10-26T10:25:03.014Z,17.80
2022-10-26T10:27:37.058Z,17.01
2022-10-26T10:30:24.133Z,17.71
2022-10-26T10:33:14.422Z,16.63
2022-10-26T10:35:56.253Z,17.93
2022-10-26T10:38:44.490Z,16.25
2022-10-26T10:44:32.706Z,16.58
2022-10-26T10:47:10.167Z,15.90
2022-10-26T10:49:44.477Z,16.59
2022-10-26T10:52:38.033Z,16.08
2022-10-26T10:55:20.653Z,15.68
2022-10-26T10:58:13.580Z,15.96
2022-10-26T11:00:58.345Z,16.86
2022-10-26T11:04:24.669Z,17.46
2022-10-26T11:07:29.658Z,20.86
2022-10-26T11:10:06.749Z,19.82
2022-10-26T11:13:39.163Z,18.92
2022-10-26T11:16:19.496Z,21.79
2022-10-26T11:18:57.620Z,22.99
2022-10-26T11:21:30.185Z,23.60
2022-10-26T11:24:11.563Z,23.39
2022-10-26T11:26:46.612Z,24.86
2022-10-26T11:29:53.349Z,27.55
2022-10-26T11:32:36.827Z,26.01
2022-10-26T11:35:16.718Z,25.06
2022-10-26T11:37:51.244Z,27.03
2022-10-26T11:40:31.763Z,27.22
2022-10-26T11:43:14.292Z,21.21
2022-10-26T11:45:46.278Z,19.27
2022-10-26T11:48:24.963Z,17.99
2022-10-26T11:50:58.275Z,17.52
2022-10-26T11:53:32.876Z,16.47
2022-10-26T11:56:04.939Z,17.07
2022-10-26T11:58:41.884Z,17.06
2022-10-26T12:02:29.493Z,19.07
2022-10-26T12:05:25.176Z,23.01
2022-10-26T12:08:23.944Z,25.54
2022-10-26T12:11:17.925Z,24.15
2022-10-26T12:14:24.348Z,18.32
2022-10-26T12:17:06.203Z,20.38
2022-10-26T12:19:57.033Z,18.14
2022-10-26T12:22:36.704Z,18.77
2022-10-26T12:25:20.866Z,17.39
2022-10-26T12:28:02.564Z,16.77
2022-10-26T12:30:34.319Z,16.09
2022-10-26T12:33:08.499Z,15.63
2022-10-26T16:14:06.646Z,13.47
2022-10-26T16:16:36.754Z,12.98
2022-10-26T16:19:29.200Z,12.89
2022-10-26T16:22:48.575Z,12.00
2022-10-26T16:25:27.438Z,12.43
2022-10-26T16:27:56.689Z,13.45
2022-10-26T16:30:30.500Z,13.18
2022-10-26T16:32:59.784Z,13.38
2022-10-26T16:35:29.018Z,13.53
2022-10-26T16:38:43.432Z,13.64
2022-10-26T16:42:00.841Z,12.87
2022-10-26T16:44:29.650Z,13.73
2022-10-26T16:47:30.207Z,13.71
2022-10-26T16:50:01.102Z,13.61
2022-10-26T16:52:30.610Z,13.29
2022-10-26T16:54:59.919Z,13.65
2022-10-26T16:57:28.620Z,13.24
2022-10-26T16:59:57.781Z,13.19
2022-10-26T17:02:31.000Z,13.59
2022-10-26T17:05:02.889Z,13.47
2022-10-26T17:07:34.959Z,13.11
2022-10-26T17:10:03.985Z,13.54
2022-10-26T17:12:32.778Z,13.48
2022-10-26T17:15:02.686Z,13.48
2022-10-26T17:17:33.216Z,13.04
2022-10-26T17:20:02.462Z,12.60
2022-10-26T17:22:31.716Z,12.50
2022-10-26T17:25:00.981Z,12.48
2022-10-26T17:27:30.562Z,13.34
2022-10-26T17:29:59.927Z,12.96
2022-10-26T17:32:28.815Z,12.66
2022-10-26T17:34:59.071Z,13.35
2022-10-26T17:39:56.560Z,12.97
2022-10-26T17:42:40.783Z,13.25
2022-10-26T17:45:10.942Z,12.49
2022-10-26T17:47:40.215Z,12.16
2022-10-26T17:50:12.745Z,11.74
2022-10-26T17:52:52.590Z,13.25
2022-10-26T17:55:22.847Z,12.24
2022-10-26T17:58:21.815Z,13.30
2022-10-26T18:03:46.485Z,12.43
2022-10-26T18:06:23.492Z,12.97
2022-10-26T18:08:58.639Z,12.05
2022-10-26T18:14:00.511Z,12.31
2022-10-26T18:16:34.732Z,11.55
2022-10-26T18:19:06.741Z,12.97
2022-10-26T18:21:49.185Z,11.76
2022-10-26T18:25:10.779Z,12.80
2022-10-26T18:30:41.890Z,12.02
2022-10-26T18:33:40.277Z,12.78
2022-10-26T18:36:48.073Z,13.12
2022-10-26T18:39:33.547Z,11.31
2022-10-26T18:43:11.245Z,12.91
2022-10-26T18:45:23.247Z,12.26
2022-10-26T18:47:59.524Z,11.75
2022-10-26T18:53:22.571Z,12.16
2022-10-26T18:56:04.507Z,12.71
2022-10-26T18:58:35.457Z,12.62
2022-10-26T19:01:33.764Z,11.24
2022-10-26T19:04:04.981Z,11.17
2022-10-26T19:06:37.709Z,12.11
2022-10-26T19:09:10.147Z,12.73
2022-10-26T19:11:43.704Z,12.58
2022-10-26T19:14:16.177Z,12.12
2022-10-26T19:16:49.302Z,11.72
2022-10-26T19:19:25.577Z,12.13
2022-10-26T19:21:55.484Z,11.29
2022-10-26T19:24:29.801Z,12.84
2022-10-26T19:27:00.340Z,12.39
2022-10-26T19:29:29.490Z,12.74
2022-10-26T19:32:17.995Z,12.32
2022-10-26T19:34:58.856Z,11.56
2022-10-26T19:37:29.739Z,12.64
2022-10-26T19:40:03.825Z,11.95
2022-10-26T19:42:36.647Z,12.77
2022-10-26T19:45:06.204Z,12.55
2022-10-26T19:47:36.241Z,12.59
2022-10-26T19:50:07.350Z,12.30
2022-10-26T19:52:38.349Z,12.65
2022-10-26T19:55:10.353Z,12.02
2022-10-26T19:57:52.891Z,12.06
2022-10-26T20:00:23.387Z,12.16
2022-10-26T20:02:56.952Z,11.85
2022-10-26T20:05:32.187Z,11.79
2022-10-26T20:08:05.919Z,11.39
2022-10-26T20:11:11.681Z,12.42
2022-10-26T20:13:51.205Z,11.12
2022-10-26T20:16:22.519Z,10.86
2022-10-26T20:18:58.203Z,11.04
2022-10-26T20:21:37.487Z,11.89
2022-10-26T20:24:21.825Z,12.38
2022-10-26T20:27:02.357Z,11.45
2022-10-26T20:29:40.118Z,11.80
2022-10-26T20:32:18.556Z,11.97
2022-10-26T20:34:49.897Z,11.81
2022-10-26T20:37:22.859Z,11.80
2022-10-26T20:39:55.302Z,12.46
2022-10-26T20:42:30.235Z,12.41
2022-10-26T20:45:25.141Z,12.09
2022-10-26T20:47:59.622Z,12.26
2022-10-26T20:50:50.429Z,12.15
2022-10-26T20:53:38.060Z,11.65
2022-10-26T20:56:13.840Z,11.54
2022-10-26T20:59:01.901Z,11.60
2022-10-26T21:01:44.718Z,11.43
2022-10-26T21:04:20.141Z,11.26
2022-10-26T21:06:52.231Z,11.47
2022-10-26T21:09:23.278Z,10.97
2022-10-26T21:11:52.943Z,12.09
2022-10-26T21:14:26.588Z,11.31
2022-10-26T21:16:56.732Z,11.79
2022-10-26T21:19:37.998Z,10.53
2022-10-26T21:22:11.400Z,10.22
2022-10-26T21:24:53.280Z,11.38
2022-10-26T21:27:24.554Z,10.42
2022-10-26T21:30:12.077Z,10.30
2022-10-26T21:32:42.645Z,11.23
2022-10-26T21:35:16.063Z,11.93
2022-10-26T21:37:45.076Z,11.91
2022-10-26T21:40:16.746Z,11.97
2022-10-26T21:42:50.633Z,11.86
2022-10-26T21:45:20.145Z,11.73
2022-10-26T21:47:53.785Z,11.86
2022-10-26T21:50:22.255Z,11.92
2022-10-26T21:52:54.071Z,11.91
2022-10-26T21:55:22.856Z,11.27
2022-10-26T21:57:53.695Z,11.82
2022-10-26T22:00:22.821Z,11.48
2022-10-26T22:02:53.398Z,11.65
2022-10-26T22:05:22.276Z,11.76
2022-10-26T22:07:51.284Z,11.18
2022-10-26T22:10:20.339Z,11.47
2022-10-26T22:12:49.028Z,11.33
2022-10-26T22:15:18.301Z,11.62
2022-10-26T22:17:47.157Z,11.51
2022-10-26T22:20:17.298Z,11.20
2022-10-26T22:22:46.036Z,11.19
2022-10-26T22:25:16.878Z,11.20
2022-10-26T22:27:45.596Z,11.23
2022-10-26T22:30:14.765Z,11.09
2022-10-26T22:32:43.928Z,11.26
2022-10-26T22:35:28.531Z,11.22
2022-10-26T22:37:59.397Z,10.87
2022-10-26T22:40:28.244Z,10.85
2022-10-26T22:42:57.092Z,11.14
2022-10-26T22:45:26.125Z,11.24
2022-10-26T22:47:54.958Z,11.28
2022-10-26T22:50:23.895Z,11.28
2022-10-26T22:52:52.764Z,11.17
2022-10-26T22:55:23.402Z,9.97
2022-10-26T22:57:52.438Z,10.93
2022-10-26T23:00:21.709Z,11.18
2022-10-26T23:02:50.480Z,11.28
2022-10-26T23:05:19.263Z,11.12
2022-10-26T23:07:48.305Z,11.03
2022-10-26T23:10:17.187Z,11.31
2022-10-26T23:12:50.035Z,11.14
2022-10-26T23:15:18.941Z,11.29
2022-10-26T23:17:47.795Z,10.84
2022-10-26T23:20:16.947Z,10.75
2022-10-26T23:22:45.928Z,11.01
2022-10-26T23:25:15.112Z,10.77
2022-10-26T23:27:43.744Z,10.94
2022-10-26T23:30:14.253Z,10.84
2022-10-26T23:32:42.914Z,10.91
2022-10-26T23:35:11.692Z,10.89
2022-10-26T23:37:40.551Z,10.88
2022-10-26T23:40:10.908Z,10.83
2022-10-26T23:42:39.811Z,10.80
2022-10-26T23:45:08.964Z,10.77
2022-10-26T23:47:39.228Z,10.79
2022-10-26T23:50:09.000Z,10.76
2022-10-26T23:52:37.748Z,10.66
2022-10-26T23:55:07.148Z,10.75
2022-10-26T23:57:35.916Z,10.67
